sensor_id;sensor_type;location;lat;lon;timestamp;pressure;altitude;pressure_sealevel;temperature;humidity
11345;BME280;5727;42.600;23.028;2023-12-20T00:01:16;94050.19;;;-1.79;100.00
11345;BME280;5727;42.600;23.028;2023-12-20T00:03:43;94055.03;;;-2.05;100.00
11345;BME280;5727;42.600;23.028;2023-12-20T00:06:10;94045.84;;;-2.01;100.00
11345;BME280;5727;42.600;23.028;2023-12-20T00:08:37;94043.75;;;-2.04;100.00
11345;BME280;5727;42.600;23.028;2023-12-20T00:11:04;94036.41;;;-1.95;100.00
11345;BME280;5727;42.600;23.028;2023-12-20T00:13:31;94038.94;;;-2.00;100.00
11345;BME280;5727;42.600;23.028;2023-12-20T00:16:01;94032.31;;;-1.96;100.00
11345;BME280;5727;42.600;23.028;2023-12-20T00:18:28;94037.31;;;-2.06;100.00
11345;BME280;5727;42.600;23.028;2023-12-20T00:20:55;94033.25;;;-2.24;100.00
11345;BME280;5727;42.600;23.028;2023-12-20T00:23:23;94026.97;;;-2.11;100.00
11345;BME280;5727;42.600;23.028;2023-12-20T00:25:50;94026.63;;;-2.20;100.00
11345;BME280;5727;42.600;23.028;2023-12-20T00:28:17;94019.31;;;-2.33;100.00
11345;BME280;5727;42.600;23.028;2023-12-20T00:30:44;94019.94;;;-2.21;100.00
11345;BME280;5727;42.600;23.028;2023-12-20T00:33:12;94013.50;;;-2.23;100.00
11345;BME280;5727;42.600;23.028;2023-12-20T00:35:39;94015.09;;;-1.96;100.00
11345;BME280;5727;42.600;23.028;2023-12-20T00:38:06;94007.59;;;-1.75;100.00
11345;BME280;5727;42.600;23.028;2023-12-20T00:40:34;93999.53;;;-1.57;100.00
11345;BME280;5727;42.600;23.028;2023-12-20T00:43:01;94000.47;;;-1.42;100.00
11345;BME280;5727;42.600;23.028;2023-12-20T00:45:28;93998.16;;;-1.38;100.00
11345;BME280;5727;42.600;23.028;2023-12-20T00:47:55;93996.72;;;-1.29;100.00
11345;BME280;5727;42.600;23.028;2023-12-20T00:50:23;93997.56;;;-1.50;100.00
11345;BME280;5727;42.600;23.028;2023-12-20T00:52:50;93993.06;;;-1.65;100.00
11345;BME280;5727;42.600;23.028;2023-12-20T00:55:18;93997.31;;;-1.49;100.00
11345;BME280;5727;42.600;23.028;2023-12-20T00:57:45;93993.50;;;-1.46;100.00
11345;BME280;5727;42.600;23.028;2023-12-20T01:00:12;93997.91;;;-1.68;100.00
11345;BME280;5727;42.600;23.028;2023-12-20T01:02:39;93988.84;;;-1.76;100.00
11345;BME280;5727;42.600;23.028;2023-12-20T01:05:06;93986.91;;;-1.64;100.00
11345;BME280;5727;42.600;23.028;2023-12-20T01:07:36;93985.81;;;-1.73;100.00
11345;BME280;5727;42.600;23.028;2023-12-20T01:10:04;93986.91;;;-1.91;100.00
11345;BME280;5727;42.600;23.028;2023-12-20T01:12:31;93982.34;;;-1.83;100.00
11345;BME280;5727;42.600;23.028;2023-12-20T01:14:58;93976.50;;;-1.79;100.00
11345;BME280;5727;42.600;23.028;2023-12-20T01:17:25;93979.78;;;-1.83;100.00
11345;BME280;5727;42.600;23.028;2023-12-20T01:19:52;93975.28;;;-1.71;100.00
11345;BME280;5727;42.600;23.028;2023-12-20T01:22:19;93972.75;;;-1.66;100.00
11345;BME280;5727;42.600;23.028;2023-12-20T01:24:47;93968.81;;;-1.79;100.00
11345;BME280;5727;42.600;23.028;2023-12-20T01:27:14;93966.28;;;-2.01;100.00
11345;BME280;5727;42.600;23.028;2023-12-20T01:29:41;93957.47;;;-2.10;100.00
11345;BME280;5727;42.600;23.028;2023-12-20T01:32:08;93961.31;;;-2.07;100.00
11345;BME280;5727;42.600;23.028;2023-12-20T01:34:35;93954.69;;;-2.03;100.00
11345;BME280;5727;42.600;23.028;2023-12-20T01:37:02;93954.16;;;-2.05;100.00
11345;BME280;5727;42.600;23.028;2023-12-20T01:39:29;93947.00;;;-2.25;100.00
11345;BME280;5727;42.600;23.028;2023-12-20T01:41:57;93941.84;;;-2.30;100.00
11345;BME280;5727;42.600;23.028;2023-12-20T01:44:24;93944.81;;;-2.38;100.00
11345;BME280;5727;42.600;23.028;2023-12-20T01:46:52;93943.44;;;-2.45;100.00
11345;BME280;5727;42.600;23.028;2023-12-20T01:49:19;93945.31;;;-2.41;100.00
11345;BME280;5727;42.600;23.028;2023-12-20T01:51:47;93932.78;;;-2.59;100.00
11345;BME280;5727;42.600;23.028;2023-12-20T01:54:15;93929.44;;;-2.38;100.00
11345;BME280;5727;42.600;23.028;2023-12-20T01:56:42;93928.03;;;-2.24;100.00
11345;BME280;5727;42.600;23.028;2023-12-20T01:59:11;93910.88;;;-2.23;100.00
11345;BME280;5727;42.600;23.028;2023-12-20T02:01:39;93913.38;;;-2.02;100.00
11345;BME280;5727;42.600;23.028;2023-12-20T02:04:06;93907.34;;;-1.86;100.00
11345;BME280;5727;42.600;23.028;2023-12-20T02:06:33;93913.38;;;-1.75;100.00
11345;BME280;5727;42.600;23.028;2023-12-20T02:09:00;93903.94;;;-1.64;100.00
11345;BME280;5727;42.600;23.028;2023-12-20T02:11:27;93898.38;;;-1.51;100.00
11345;BME280;5727;42.600;23.028;2023-12-20T02:13:55;93896.94;;;-1.37;100.00
11345;BME280;5727;42.600;23.028;2023-12-20T02:16:23;93901.41;;;-1.59;100.00
11345;BME280;5727;42.600;23.028;2023-12-20T02:18:50;93890.13;;;-1.53;100.00
11345;BME280;5727;42.600;23.028;2023-12-20T02:21:17;93887.09;;;-1.50;100.00
11345;BME280;5727;42.600;23.028;2023-12-20T02:23:46;93893.19;;;-1.61;100.00
11345;BME280;5727;42.600;23.028;2023-12-20T02:26:13;93883.47;;;-1.86;100.00
11345;BME280;5727;42.600;23.028;2023-12-20T02:28:40;93877.69;;;-1.71;100.00
11345;BME280;5727;42.600;23.028;2023-12-20T02:31:07;93878.59;;;-1.88;100.00
11345;BME280;5727;42.600;23.028;2023-12-20T02:33:34;93879.44;;;-1.77;100.00
11345;BME280;5727;42.600;23.028;2023-12-20T02:36:01;93865.38;;;-1.69;100.00
11345;BME280;5727;42.600;23.028;2023-12-20T02:38:28;93878.34;;;-1.54;100.00
11345;BME280;5727;42.600;23.028;2023-12-20T02:40:56;93871.22;;;-1.42;100.00
11345;BME280;5727;42.600;23.028;2023-12-20T02:43:23;93872.84;;;-1.31;100.00
11345;BME280;5727;42.600;23.028;2023-12-20T02:45:50;93865.41;;;-1.28;100.00
11345;BME280;5727;42.600;23.028;2023-12-20T02:48:17;93867.06;;;-1.48;100.00
11345;BME280;5727;42.600;23.028;2023-12-20T02:50:45;93874.53;;;-1.47;100.00
11345;BME280;5727;42.600;23.028;2023-12-20T02:53:13;93865.09;;;-1.73;100.00
11345;BME280;5727;42.600;23.028;2023-12-20T02:55:40;93872.13;;;-1.90;100.00
11345;BME280;5727;42.600;23.028;2023-12-20T02:58:08;93874.41;;;-1.94;100.00
11345;BME280;5727;42.600;23.028;2023-12-20T03:00:35;93868.31;;;-1.88;100.00
11345;BME280;5727;42.600;23.028;2023-12-20T03:03:02;93870.94;;;-1.82;100.00
11345;BME280;5727;42.600;23.028;2023-12-20T03:05:29;93861.78;;;-1.68;100.00
11345;BME280;5727;42.600;23.028;2023-12-20T03:07:56;93862.91;;;-1.54;100.00
11345;BME280;5727;42.600;23.028;2023-12-20T03:10:23;93856.34;;;-1.40;100.00
11345;BME280;5727;42.600;23.028;2023-12-20T03:12:50;93853.81;;;-1.30;100.00
11345;BME280;5727;42.600;23.028;2023-12-20T03:15:18;93856.16;;;-1.24;100.00
11345;BME280;5727;42.600;23.028;2023-12-20T03:17:45;93857.22;;;-1.15;100.00
11345;BME280;5727;42.600;23.028;2023-12-20T03:20:12;93851.63;;;-1.12;100.00
11345;BME280;5727;42.600;23.028;2023-12-20T03:22:39;93851.38;;;-1.05;100.00
11345;BME280;5727;42.600;23.028;2023-12-20T03:25:06;93856.50;;;-1.05;100.00
11345;BME280;5727;42.600;23.028;2023-12-20T03:27:34;93849.84;;;-1.06;100.00
11345;BME280;5727;42.600;23.028;2023-12-20T03:30:00;93849.59;;;-1.00;100.00
11345;BME280;5727;42.600;23.028;2023-12-20T03:32:29;93850.38;;;-0.99;100.00
11345;BME280;5727;42.600;23.028;2023-12-20T03:34:56;93852.88;;;-1.09;100.00
11345;BME280;5727;42.600;23.028;2023-12-20T03:37:23;93841.81;;;-1.15;100.00
11345;BME280;5727;42.600;23.028;2023-12-20T03:39:50;93839.16;;;-1.30;100.00
11345;BME280;5727;42.600;23.028;2023-12-20T03:42:17;93837.91;;;-1.27;100.00
11345;BME280;5727;42.600;23.028;2023-12-20T03:44:44;93833.25;;;-1.30;100.00
11345;BME280;5727;42.600;23.028;2023-12-20T03:47:11;93829.94;;;-1.26;100.00
11345;BME280;5727;42.600;23.028;2023-12-20T03:49:39;93833.31;;;-1.20;100.00
11345;BME280;5727;42.600;23.028;2023-12-20T03:52:06;93832.53;;;-1.21;100.00
11345;BME280;5727;42.600;23.028;2023-12-20T03:54:33;93830.66;;;-1.35;100.00
11345;BME280;5727;42.600;23.028;2023-12-20T03:57:00;93827.56;;;-1.32;100.00
11345;BME280;5727;42.600;23.028;2023-12-20T03:59:27;93836.84;;;-1.31;100.00
11345;BME280;5727;42.600;23.028;2023-12-20T04:01:54;93818.34;;;-1.28;100.00
11345;BME280;5727;42.600;23.028;2023-12-20T04:04:20;93827.88;;;-1.29;100.00
11345;BME280;5727;42.600;23.028;2023-12-20T04:06:49;93817.56;;;-1.34;100.00
11345;BME280;5727;42.600;23.028;2023-12-20T04:09:16;93809.56;;;-1.37;100.00
11345;BME280;5727;42.600;23.028;2023-12-20T04:11:43;93813.16;;;-1.38;100.00
11345;BME280;5727;42.600;23.028;2023-12-20T04:14:10;93814.19;;;-1.34;100.00
11345;BME280;5727;42.600;23.028;2023-12-20T04:16:36;93815.22;;;-1.40;100.00
11345;BME280;5727;42.600;23.028;2023-12-20T04:19:04;93810.81;;;-1.45;100.00
11345;BME280;5727;42.600;23.028;2023-12-20T04:21:31;93814.13;;;-1.49;100.00
11345;BME280;5727;42.600;23.028;2023-12-20T04:23:59;93813.34;;;-1.50;100.00
11345;BME280;5727;42.600;23.028;2023-12-20T04:26:26;93810.75;;;-1.55;100.00
11345;BME280;5727;42.600;23.028;2023-12-20T04:28:55;93798.97;;;-1.51;100.00
11345;BME280;5727;42.600;23.028;2023-12-20T04:31:21;93802.31;;;-1.50;100.00
11345;BME280;5727;42.600;23.028;2023-12-20T04:33:49;93795.13;;;-1.48;100.00
11345;BME280;5727;42.600;23.028;2023-12-20T04:36:16;93798.97;;;-1.46;100.00
11345;BME280;5727;42.600;23.028;2023-12-20T04:38:43;93795.69;;;-1.41;100.00
11345;BME280;5727;42.600;23.028;2023-12-20T04:41:11;93798.50;;;-1.43;100.00
11345;BME280;5727;42.600;23.028;2023-12-20T04:43:41;93791.53;;;-1.47;100.00
11345;BME280;5727;42.600;23.028;2023-12-20T04:46:08;93798.09;;;-1.66;100.00
11345;BME280;5727;42.600;23.028;2023-12-20T04:48:35;93807.19;;;-1.91;100.00
11345;BME280;5727;42.600;23.028;2023-12-20T04:51:02;93792.66;;;-2.12;100.00
11345;BME280;5727;42.600;23.028;2023-12-20T04:53:29;93800.16;;;-2.37;100.00
11345;BME280;5727;42.600;23.028;2023-12-20T04:55:55;93791.16;;;-2.66;100.00
11345;BME280;5727;42.600;23.028;2023-12-20T04:58:24;93792.53;;;-2.80;100.00
11345;BME280;5727;42.600;23.028;2023-12-20T05:00:51;93791.53;;;-2.79;100.00
11345;BME280;5727;42.600;23.028;2023-12-20T05:03:18;93783.75;;;-2.89;100.00
11345;BME280;5727;42.600;23.028;2023-12-20T05:05:45;93772.03;;;-2.80;100.00
11345;BME280;5727;42.600;23.028;2023-12-20T05:08:12;93775.28;;;-2.63;100.00
11345;BME280;5727;42.600;23.028;2023-12-20T05:10:39;93769.72;;;-2.55;100.00
11345;BME280;5727;42.600;23.028;2023-12-20T05:13:06;93776.88;;;-2.57;100.00
11345;BME280;5727;42.600;23.028;2023-12-20T05:15:34;93764.84;;;-2.51;100.00
11345;BME280;5727;42.600;23.028;2023-12-20T05:18:01;93770.38;;;-2.64;100.00
11345;BME280;5727;42.600;23.028;2023-12-20T05:20:28;93769.59;;;-2.65;100.00
11345;BME280;5727;42.600;23.028;2023-12-20T05:22:55;93754.28;;;-2.60;100.00
11345;BME280;5727;42.600;23.028;2023-12-20T05:25:22;93756.66;;;-2.80;100.00
11345;BME280;5727;42.600;23.028;2023-12-20T05:27:50;93757.44;;;-2.80;100.00
11345;BME280;5727;42.600;23.028;2023-12-20T05:30:17;93755.00;;;-2.64;100.00
11345;BME280;5727;42.600;23.028;2023-12-20T05:32:46;93755.59;;;-2.57;100.00
11345;BME280;5727;42.600;23.028;2023-12-20T05:35:13;93747.81;;;-2.67;100.00
11345;BME280;5727;42.600;23.028;2023-12-20T05:37:40;93737.97;;;-2.49;100.00
11345;BME280;5727;42.600;23.028;2023-12-20T05:40:08;93746.28;;;-2.37;100.00
11345;BME280;5727;42.600;23.028;2023-12-20T05:42:36;93745.53;;;-2.32;100.00
11345;BME280;5727;42.600;23.028;2023-12-20T05:45:03;93747.91;;;-2.21;100.00
11345;BME280;5727;42.600;23.028;2023-12-20T05:47:51;93749.78;;;-2.11;100.00
11345;BME280;5727;42.600;23.028;2023-12-20T05:50:17;93742.41;;;-2.03;100.00
11345;BME280;5727;42.600;23.028;2023-12-20T05:52:44;93739.34;;;-2.00;100.00
11345;BME280;5727;42.600;23.028;2023-12-20T05:55:11;93741.44;;;-1.97;100.00
11345;BME280;5727;42.600;23.028;2023-12-20T05:57:38;93735.03;;;-1.94;100.00
11345;BME280;5727;42.600;23.028;2023-12-20T06:00:06;93732.75;;;-1.86;100.00
11345;BME280;5727;42.600;23.028;2023-12-20T06:02:35;93727.16;;;-1.77;100.00
11345;BME280;5727;42.600;23.028;2023-12-20T06:05:04;93729.72;;;-1.82;100.00
11345;BME280;5727;42.600;23.028;2023-12-20T06:07:31;93730.84;;;-2.05;100.00
11345;BME280;5727;42.600;23.028;2023-12-20T06:09:58;93729.38;;;-1.96;100.00
11345;BME280;5727;42.600;23.028;2023-12-20T06:12:25;93732.69;;;-1.96;100.00
11345;BME280;5727;42.600;23.028;2023-12-20T06:14:53;93734.53;;;-1.86;100.00
11345;BME280;5727;42.600;23.028;2023-12-20T06:17:20;93729.97;;;-1.79;100.00
11345;BME280;5727;42.600;23.028;2023-12-20T06:19:47;93740.25;;;-1.79;100.00
11345;BME280;5727;42.600;23.028;2023-12-20T06:22:15;93734.16;;;-1.68;100.00
11345;BME280;5727;42.600;23.028;2023-12-20T06:24:43;93738.25;;;-1.67;100.00
11345;BME280;5727;42.600;23.028;2023-12-20T06:27:10;93736.97;;;-1.64;100.00
11345;BME280;5727;42.600;23.028;2023-12-20T06:29:37;93737.91;;;-1.86;100.00
11345;BME280;5727;42.600;23.028;2023-12-20T06:32:06;93731.06;;;-2.12;100.00
11345;BME280;5727;42.600;23.028;2023-12-20T06:34:33;93729.59;;;-1.98;100.00
11345;BME280;5727;42.600;23.028;2023-12-20T06:37:00;93737.28;;;-2.03;100.00
11345;BME280;5727;42.600;23.028;2023-12-20T06:39:28;93730.13;;;-1.96;100.00
11345;BME280;5727;42.600;23.028;2023-12-20T06:41:56;93731.16;;;-1.97;100.00
11345;BME280;5727;42.600;23.028;2023-12-20T06:44:23;93737.34;;;-1.93;100.00
11345;BME280;5727;42.600;23.028;2023-12-20T06:46:50;93736.41;;;-1.76;100.00
11345;BME280;5727;42.600;23.028;2023-12-20T06:49:17;93746.66;;;-1.76;100.00
11345;BME280;5727;42.600;23.028;2023-12-20T06:51:44;93730.28;;;-1.70;100.00
11345;BME280;5727;42.600;23.028;2023-12-20T06:54:11;93728.53;;;-1.60;100.00
11345;BME280;5727;42.600;23.028;2023-12-20T06:56:39;93727.81;;;-1.50;100.00
11345;BME280;5727;42.600;23.028;2023-12-20T06:59:06;93720.63;;;-1.48;100.00
11345;BME280;5727;42.600;23.028;2023-12-20T07:01:33;93719.09;;;-1.44;100.00
11345;BME280;5727;42.600;23.028;2023-12-20T07:04:00;93714.66;;;-1.64;100.00
11345;BME280;5727;42.600;23.028;2023-12-20T07:06:27;93713.25;;;-1.87;100.00
11345;BME280;5727;42.600;23.028;2023-12-20T07:08:54;93715.81;;;-1.87;100.00
11345;BME280;5727;42.600;23.028;2023-12-20T07:11:21;93715.13;;;-2.14;100.00
11345;BME280;5727;42.600;23.028;2023-12-20T07:13:50;93704.53;;;-2.27;100.00
11345;BME280;5727;42.600;23.028;2023-12-20T07:16:17;93709.72;;;-2.17;100.00
11345;BME280;5727;42.600;23.028;2023-12-20T07:18:44;93702.66;;;-1.95;100.00
11345;BME280;5727;42.600;23.028;2023-12-20T07:21:11;93702.00;;;-1.70;100.00
11345;BME280;5727;42.600;23.028;2023-12-20T07:23:39;93703.13;;;-1.51;100.00
11345;BME280;5727;42.600;23.028;2023-12-20T07:26:06;93701.94;;;-1.29;100.00
11345;BME280;5727;42.600;23.028;2023-12-20T07:28:33;93700.47;;;-1.10;100.00
11345;BME280;5727;42.600;23.028;2023-12-20T07:31:02;93697.66;;;-0.98;100.00
11345;BME280;5727;42.600;23.028;2023-12-20T07:36:05;93694.84;;;-0.66;100.00
11345;BME280;5727;42.600;23.028;2023-12-20T07:38:32;93698.19;;;-0.61;100.00
11345;BME280;5727;42.600;23.028;2023-12-20T07:41:02;93697.94;;;-0.59;100.00
11345;BME280;5727;42.600;23.028;2023-12-20T07:43:29;93693.84;;;-0.50;100.00
11345;BME280;5727;42.600;23.028;2023-12-20T07:45:55;93694.09;;;-0.57;100.00
11345;BME280;5727;42.600;23.028;2023-12-20T07:48:24;93687.91;;;-0.61;100.00
11345;BME280;5727;42.600;23.028;2023-12-20T07:50:51;93685.34;;;-0.76;100.00
11345;BME280;5727;42.600;23.028;2023-12-20T07:53:19;93684.25;;;-1.05;100.00
11345;BME280;5727;42.600;23.028;2023-12-20T07:55:46;93679.59;;;-1.23;100.00
11345;BME280;5727;42.600;23.028;2023-12-20T07:58:13;93677.31;;;-1.05;100.00
11345;BME280;5727;42.600;23.028;2023-12-20T08:00:40;93674.47;;;-1.13;100.00
11345;BME280;5727;42.600;23.028;2023-12-20T08:03:07;93668.81;;;-1.20;100.00
11345;BME280;5727;42.600;23.028;2023-12-20T08:05:35;93674.75;;;-1.10;100.00
11345;BME280;5727;42.600;23.028;2023-12-20T08:08:02;93666.50;;;-1.22;100.00
11345;BME280;5727;42.600;23.028;2023-12-20T08:10:29;93672.63;;;-1.28;100.00
11345;BME280;5727;42.600;23.028;2023-12-20T08:12:56;93671.59;;;-1.27;100.00
11345;BME280;5727;42.600;23.028;2023-12-20T08:15:23;93669.78;;;-1.36;100.00
11345;BME280;5727;42.600;23.028;2023-12-20T08:17:50;93660.31;;;-1.31;100.00
11345;BME280;5727;42.600;23.028;2023-12-20T08:20:17;93655.13;;;-1.36;100.00
11345;BME280;5727;42.600;23.028;2023-12-20T08:22:45;93649.72;;;-1.44;100.00
11345;BME280;5727;42.600;23.028;2023-12-20T08:25:12;93650.22;;;-1.52;100.00
11345;BME280;5727;42.600;23.028;2023-12-20T08:27:41;93644.63;;;-1.29;100.00
11345;BME280;5727;42.600;23.028;2023-12-20T08:30:09;93642.84;;;-1.24;100.00
11345;BME280;5727;42.600;23.028;2023-12-20T08:32:36;93643.56;;;-1.38;100.00
11345;BME280;5727;42.600;23.028;2023-12-20T08:35:03;93634.53;;;-1.51;100.00
11345;BME280;5727;42.600;23.028;2023-12-20T08:37:31;93637.06;;;-1.61;100.00
11345;BME280;5727;42.600;23.028;2023-12-20T08:39:59;93624.97;;;-1.75;100.00
11345;BME280;5727;42.600;23.028;2023-12-20T08:42:26;93629.84;;;-1.74;100.00
11345;BME280;5727;42.600;23.028;2023-12-20T08:44:56;93621.88;;;-1.72;100.00
11345;BME280;5727;42.600;23.028;2023-12-20T08:47:24;93619.88;;;-1.55;100.00
11345;BME280;5727;42.600;23.028;2023-12-20T08:49:51;93624.06;;;-1.29;100.00
11345;BME280;5727;42.600;23.028;2023-12-20T08:52:22;93623.31;;;-1.00;100.00
11345;BME280;5727;42.600;23.028;2023-12-20T08:54:49;93611.50;;;-1.06;100.00
11345;BME280;5727;42.600;23.028;2023-12-20T08:57:19;93613.81;;;-1.04;100.00
11345;BME280;5727;42.600;23.028;2023-12-20T08:59:48;93606.59;;;-1.17;100.00
11345;BME280;5727;42.600;23.028;2023-12-20T09:02:16;93595.81;;;-1.19;100.00
11345;BME280;5727;42.600;23.028;2023-12-20T09:04:43;93600.44;;;-1.11;100.00
11345;BME280;5727;42.600;23.028;2023-12-20T09:07:21;93590.69;;;-0.89;100.00
11345;BME280;5727;42.600;23.028;2023-12-20T09:09:48;93583.72;;;-0.48;100.00
11345;BME280;5727;42.600;23.028;2023-12-20T09:12:15;93584.91;;;-0.11;100.00
11345;BME280;5727;42.600;23.028;2023-12-20T09:14:43;93572.91;;;0.29;100.00
11345;BME280;5727;42.600;23.028;2023-12-20T09:17:10;93569.63;;;0.62;100.00
11345;BME280;5727;42.600;23.028;2023-12-20T09:19:38;93563.47;;;0.58;100.00
11345;BME280;5727;42.600;23.028;2023-12-20T09:22:05;93558.22;;;0.73;100.00
11345;BME280;5727;42.600;23.028;2023-12-20T09:24:33;93551.47;;;0.82;100.00
11345;BME280;5727;42.600;23.028;2023-12-20T09:27:00;93541.59;;;0.89;100.00
11345;BME280;5727;42.600;23.028;2023-12-20T09:29:27;93545.13;;;0.98;100.00
11345;BME280;5727;42.600;23.028;2023-12-20T09:31:55;93547.06;;;0.82;100.00
11345;BME280;5727;42.600;23.028;2023-12-20T09:34:23;93532.66;;;1.10;100.00
11345;BME280;5727;42.600;23.028;2023-12-20T09:36:51;93536.72;;;0.87;100.00
11345;BME280;5727;42.600;23.028;2023-12-20T09:39:20;93530.91;;;0.72;100.00
11345;BME280;5727;42.600;23.028;2023-12-20T09:41:55;93523.44;;;0.65;100.00
11345;BME280;5727;42.600;23.028;2023-12-20T09:44:27;93519.13;;;0.56;100.00
11345;BME280;5727;42.600;23.028;2023-12-20T09:46:56;93506.06;;;0.47;100.00
11345;BME280;5727;42.600;23.028;2023-12-20T09:49:25;93508.75;;;0.71;100.00
11345;BME280;5727;42.600;23.028;2023-12-20T09:51:54;93500.09;;;0.85;100.00
11345;BME280;5727;42.600;23.028;2023-12-20T09:54:22;93497.59;;;0.75;100.00
11345;BME280;5727;42.600;23.028;2023-12-20T09:56:50;93492.31;;;0.90;100.00
11345;BME280;5727;42.600;23.028;2023-12-20T09:59:17;93491.94;;;0.78;100.00
11345;BME280;5727;42.600;23.028;2023-12-20T10:01:44;93482.03;;;0.57;100.00
11345;BME280;5727;42.600;23.028;2023-12-20T10:04:13;93468.34;;;0.56;100.00
11345;BME280;5727;42.600;23.028;2023-12-20T10:06:40;93466.34;;;0.53;100.00
11345;BME280;5727;42.600;23.028;2023-12-20T10:09:07;93459.97;;;0.41;100.00
11345;BME280;5727;42.600;23.028;2023-12-20T10:11:35;93458.13;;;0.46;100.00
11345;BME280;5727;42.600;23.028;2023-12-20T10:14:03;93460.34;;;0.63;100.00
11345;BME280;5727;42.600;23.028;2023-12-20T10:16:31;93453.09;;;0.65;100.00
11345;BME280;5727;42.600;23.028;2023-12-20T10:18:58;93450.84;;;0.87;100.00
11345;BME280;5727;42.600;23.028;2023-12-20T10:21:27;93453.81;;;0.70;100.00
11345;BME280;5727;42.600;23.028;2023-12-20T10:23:55;93448.25;;;0.87;100.00
11345;BME280;5727;42.600;23.028;2023-12-20T10:26:23;93443.75;;;0.74;100.00
11345;BME280;5727;42.600;23.028;2023-12-20T10:28:51;93430.75;;;0.84;100.00
11345;BME280;5727;42.600;23.028;2023-12-20T10:31:27;93422.19;;;0.88;100.00
11345;BME280;5727;42.600;23.028;2023-12-20T10:33:56;93421.31;;;0.98;100.00
11345;BME280;5727;42.600;23.028;2023-12-20T10:36:25;93415.19;;;0.94;100.00
11345;BME280;5727;42.600;23.028;2023-12-20T10:38:55;93415.19;;;0.94;100.00
11345;BME280;5727;42.600;23.028;2023-12-20T10:41:25;93401.56;;;1.17;100.00
11345;BME280;5727;42.600;23.028;2023-12-20T10:43:55;93401.31;;;1.37;100.00
11345;BME280;5727;42.600;23.028;2023-12-20T10:46:23;93392.63;;;1.52;100.00
11345;BME280;5727;42.600;23.028;2023-12-20T10:48:53;93390.69;;;1.62;100.00
11345;BME280;5727;42.600;23.028;2023-12-20T10:51:21;93384.41;;;1.87;100.00
11345;BME280;5727;42.600;23.028;2023-12-20T10:53:48;93382.81;;;2.10;100.00
11345;BME280;5727;42.600;23.028;2023-12-20T10:56:18;93381.63;;;2.02;100.00
11345;BME280;5727;42.600;23.028;2023-12-20T10:58:45;93377.97;;;2.22;100.00
11345;BME280;5727;42.600;23.028;2023-12-20T11:01:14;93377.84;;;2.32;100.00
11345;BME280;5727;42.600;23.028;2023-12-20T11:03:46;93369.38;;;2.58;100.00
11345;BME280;5727;42.600;23.028;2023-12-20T11:06:23;93356.84;;;2.65;100.00
11345;BME280;5727;42.600;23.028;2023-12-20T11:09:02;93348.28;;;2.97;100.00
11345;BME280;5727;42.600;23.028;2023-12-20T11:11:42;93348.38;;;3.19;100.00
11345;BME280;5727;42.600;23.028;2023-12-20T11:14:17;93341.50;;;3.28;100.00
11345;BME280;5727;42.600;23.028;2023-12-20T11:16:45;93331.00;;;3.47;100.00
11345;BME280;5727;42.600;23.028;2023-12-20T11:19:12;93332.13;;;3.68;100.00
11345;BME280;5727;42.600;23.028;2023-12-20T11:21:41;93324.09;;;3.42;100.00
11345;BME280;5727;42.600;23.028;2023-12-20T11:24:08;93314.63;;;3.51;100.00
11345;BME280;5727;42.600;23.028;2023-12-20T11:26:37;93309.91;;;3.53;100.00
11345;BME280;5727;42.600;23.028;2023-12-20T11:29:29;93310.47;;;3.50;100.00
11345;BME280;5727;42.600;23.028;2023-12-20T11:31:56;93302.63;;;3.42;100.00
11345;BME280;5727;42.600;23.028;2023-12-20T11:34:27;93296.91;;;3.18;100.00
11345;BME280;5727;42.600;23.028;2023-12-20T11:36:57;93285.69;;;3.09;100.00
11345;BME280;5727;42.600;23.028;2023-12-20T11:39:25;93289.16;;;2.91;100.00
11345;BME280;5727;42.600;23.028;2023-12-20T11:41:54;93276.59;;;2.98;100.00
11345;BME280;5727;42.600;23.028;2023-12-20T11:44:21;93266.44;;;3.01;100.00
11345;BME280;5727;42.600;23.028;2023-12-20T11:46:49;93271.00;;;3.18;100.00
11345;BME280;5727;42.600;23.028;2023-12-20T11:49:15;93264.53;;;3.42;100.00
11345;BME280;5727;42.600;23.028;2023-12-20T11:51:42;93264.94;;;3.49;100.00
11345;BME280;5727;42.600;23.028;2023-12-20T11:54:10;93252.09;;;3.31;100.00
11345;BME280;5727;42.600;23.028;2023-12-20T11:56:37;93248.84;;;3.25;100.00
11345;BME280;5727;42.600;23.028;2023-12-20T11:59:07;93248.28;;;3.28;100.00
11345;BME280;5727;42.600;23.028;2023-12-20T12:01:37;93242.41;;;3.36;100.00
11345;BME280;5727;42.600;23.028;2023-12-20T12:04:04;93232.03;;;3.36;100.00
11345;BME280;5727;42.600;23.028;2023-12-20T12:06:31;93227.81;;;3.40;100.00
11345;BME280;5727;42.600;23.028;2023-12-20T12:08:58;93224.75;;;3.38;100.00
11345;BME280;5727;42.600;23.028;2023-12-20T12:11:25;93223.81;;;3.34;100.00
11345;BME280;5727;42.600;23.028;2023-12-20T12:13:52;93219.59;;;3.25;100.00
11345;BME280;5727;42.600;23.028;2023-12-20T12:16:21;93215.72;;;3.14;100.00
11345;BME280;5727;42.600;23.028;2023-12-20T12:18:55;93196.50;;;2.93;100.00
11345;BME280;5727;42.600;23.028;2023-12-20T12:21:22;93198.00;;;3.07;100.00
11345;BME280;5727;42.600;23.028;2023-12-20T12:23:49;93190.66;;;3.23;100.00
11345;BME280;5727;42.600;23.028;2023-12-20T12:26:16;93195.31;;;3.12;100.00
11345;BME280;5727;42.600;23.028;2023-12-20T12:28:43;93186.56;;;3.22;100.00
11345;BME280;5727;42.600;23.028;2023-12-20T12:31:13;93180.66;;;3.43;100.00
11345;BME280;5727;42.600;23.028;2023-12-20T12:33:43;93187.81;;;3.46;100.00
11345;BME280;5727;42.600;23.028;2023-12-20T12:36:10;93195.75;;;3.50;100.00
11345;BME280;5727;42.600;23.028;2023-12-20T12:38:41;93186.03;;;3.33;100.00
11345;BME280;5727;42.600;23.028;2023-12-20T12:41:08;93182.63;;;3.24;100.00
11345;BME280;5727;42.600;23.028;2023-12-20T12:43:36;93187.84;;;3.33;100.00
11345;BME280;5727;42.600;23.028;2023-12-20T12:46:03;93183.94;;;3.57;100.00
11345;BME280;5727;42.600;23.028;2023-12-20T12:48:30;93183.09;;;3.93;100.00
11345;BME280;5727;42.600;23.028;2023-12-20T12:50:58;93177.28;;;4.57;100.00
11345;BME280;5727;42.600;23.028;2023-12-20T12:53:25;93182.31;;;5.87;100.00
11345;BME280;5727;42.600;23.028;2023-12-20T12:55:53;93185.53;;;5.84;100.00
11345;BME280;5727;42.600;23.028;2023-12-20T12:58:20;93184.13;;;5.69;100.00